sensor_id;sensor_type;location;lat;lon;timestamp;P1;durP1;ratioP1;P2;durP2;ratioP2
62610;SDS011;48683;48.084;17.272;2023-05-29T00:01:05;9.50;;;5.60;;
62610;SDS011;48683;48.084;17.272;2023-05-29T00:03:34;8.38;;;5.45;;
62610;SDS011;48683;48.084;17.272;2023-05-29T00:06:01;10.30;;;5.43;;
62610;SDS011;48683;48.084;17.272;2023-05-29T00:08:27;11.43;;;6.22;;
62610;SDS011;48683;48.084;17.272;2023-05-29T00:10:53;10.23;;;5.40;;
62610;SDS011;48683;48.084;17.272;2023-05-29T00:13:19;8.13;;;5.07;;
62610;SDS011;48683;48.084;17.272;2023-05-29T00:15:44;8.87;;;5.47;;
62610;SDS011;48683;48.084;17.272;2023-05-29T00:18:11;8.52;;;6.35;;
62610;SDS011;48683;48.084;17.272;2023-05-29T00:20:36;7.80;;;5.60;;
62610;SDS011;48683;48.084;17.272;2023-05-29T00:23:03;9.10;;;6.65;;
62610;SDS011;48683;48.084;17.272;2023-05-29T00:25:29;8.70;;;5.65;;
62610;SDS011;48683;48.084;17.272;2023-05-29T00:27:54;7.80;;;5.20;;
62610;SDS011;48683;48.084;17.272;2023-05-29T00:30:20;8.02;;;5.80;;
62610;SDS011;48683;48.084;17.272;2023-05-29T00:32:45;6.70;;;5.33;;
62610;SDS011;48683;48.084;17.272;2023-05-29T00:35:10;9.67;;;5.73;;
62610;SDS011;48683;48.084;17.272;2023-05-29T00:37:36;10.17;;;5.90;;
62610;SDS011;48683;48.084;17.272;2023-05-29T00:40:01;8.10;;;5.43;;
62610;SDS011;48683;48.084;17.272;2023-05-29T00:42:28;9.32;;;5.90;;
62610;SDS011;48683;48.084;17.272;2023-05-29T00:44:53;11.52;;;6.50;;
62610;SDS011;48683;48.084;17.272;2023-05-29T00:47:18;9.55;;;5.82;;
62610;SDS011;48683;48.084;17.272;2023-05-29T00:49:44;10.00;;;6.23;;
62610;SDS011;48683;48.084;17.272;2023-05-29T00:52:09;9.73;;;5.90;;
62610;SDS011;48683;48.084;17.272;2023-05-29T00:54:35;9.77;;;6.85;;
62610;SDS011;48683;48.084;17.272;2023-05-29T00:57:02;11.63;;;6.60;;
62610;SDS011;48683;48.084;17.272;2023-05-29T00:59:29;7.17;;;6.23;;
62610;SDS011;48683;48.084;17.272;2023-05-29T01:01:57;11.02;;;7.10;;
62610;SDS011;48683;48.084;17.272;2023-05-29T01:04:23;12.55;;;7.38;;
62610;SDS011;48683;48.084;17.272;2023-05-29T01:06:51;10.77;;;6.05;;
62610;SDS011;48683;48.084;17.272;2023-05-29T01:09:16;11.90;;;6.93;;
62610;SDS011;48683;48.084;17.272;2023-05-29T01:14:23;8.80;;;6.32;;
62610;SDS011;48683;48.084;17.272;2023-05-29T01:25:21;10.15;;;6.38;;
62610;SDS011;48683;48.084;17.272;2023-05-29T01:27:52;8.63;;;5.72;;
62610;SDS011;48683;48.084;17.272;2023-05-29T01:30:19;12.13;;;6.55;;
62610;SDS011;48683;48.084;17.272;2023-05-29T01:32:46;8.15;;;5.93;;
62610;SDS011;48683;48.084;17.272;2023-05-29T01:35:12;11.47;;;6.33;;
62610;SDS011;48683;48.084;17.272;2023-05-29T01:37:37;6.87;;;5.13;;
62610;SDS011;48683;48.084;17.272;2023-05-29T01:40:02;9.75;;;6.68;;
62610;SDS011;48683;48.084;17.272;2023-05-29T01:42:29;7.65;;;6.25;;
62610;SDS011;48683;48.084;17.272;2023-05-29T01:44:55;11.73;;;6.30;;
62610;SDS011;48683;48.084;17.272;2023-05-29T01:47:22;7.95;;;5.90;;
62610;SDS011;48683;48.084;17.272;2023-05-29T01:49:49;10.98;;;5.88;;
62610;SDS011;48683;48.084;17.272;2023-05-29T01:52:15;9.13;;;6.28;;
62610;SDS011;48683;48.084;17.272;2023-05-29T01:54:40;11.65;;;6.22;;
62610;SDS011;48683;48.084;17.272;2023-05-29T01:57:06;10.63;;;7.03;;
62610;SDS011;48683;48.084;17.272;2023-05-29T01:59:32;9.55;;;6.20;;
62610;SDS011;48683;48.084;17.272;2023-05-29T02:02:04;9.47;;;5.73;;
62610;SDS011;48683;48.084;17.272;2023-05-29T02:04:33;9.98;;;6.38;;
62610;SDS011;48683;48.084;17.272;2023-05-29T02:06:58;9.07;;;6.07;;
62610;SDS011;48683;48.084;17.272;2023-05-29T02:09:24;8.20;;;5.78;;
62610;SDS011;48683;48.084;17.272;2023-05-29T02:11:50;12.95;;;6.45;;
62610;SDS011;48683;48.084;17.272;2023-05-29T02:14:15;11.17;;;5.30;;
62610;SDS011;48683;48.084;17.272;2023-05-29T02:16:40;9.73;;;5.68;;
62610;SDS011;48683;48.084;17.272;2023-05-29T02:19:06;10.30;;;5.78;;
62610;SDS011;48683;48.084;17.272;2023-05-29T02:21:31;9.50;;;5.43;;
62610;SDS011;48683;48.084;17.272;2023-05-29T02:23:56;8.18;;;5.40;;
62610;SDS011;48683;48.084;17.272;2023-05-29T02:26:22;11.52;;;5.47;;
62610;SDS011;48683;48.084;17.272;2023-05-29T02:28:48;10.00;;;5.53;;
62610;SDS011;48683;48.084;17.272;2023-05-29T02:31:13;7.57;;;5.28;;
62610;SDS011;48683;48.084;17.272;2023-05-29T02:33:38;9.18;;;5.93;;
62610;SDS011;48683;48.084;17.272;2023-05-29T02:36:04;9.85;;;5.60;;
62610;SDS011;48683;48.084;17.272;2023-05-29T02:38:29;11.50;;;5.57;;
62610;SDS011;48683;48.084;17.272;2023-05-29T02:40:54;8.50;;;6.13;;
62610;SDS011;48683;48.084;17.272;2023-05-29T02:43:21;10.80;;;5.80;;
62610;SDS011;48683;48.084;17.272;2023-05-29T02:45:46;9.68;;;5.80;;
62610;SDS011;48683;48.084;17.272;2023-05-29T02:48:12;17.55;;;6.68;;
62610;SDS011;48683;48.084;17.272;2023-05-29T02:50:37;10.07;;;4.95;;
62610;SDS011;48683;48.084;17.272;2023-05-29T02:53:02;8.02;;;4.97;;
62610;SDS011;48683;48.084;17.272;2023-05-29T02:55:28;9.00;;;5.03;;
62610;SDS011;48683;48.084;17.272;2023-05-29T02:57:53;10.95;;;5.68;;
62610;SDS011;48683;48.084;17.272;2023-05-29T03:00:20;9.57;;;5.10;;
62610;SDS011;48683;48.084;17.272;2023-05-29T03:02:45;9.95;;;5.68;;
62610;SDS011;48683;48.084;17.272;2023-05-29T03:05:11;10.03;;;4.93;;
62610;SDS011;48683;48.084;17.272;2023-05-29T03:07:36;9.25;;;5.65;;
62610;SDS011;48683;48.084;17.272;2023-05-29T03:10:02;7.63;;;4.60;;
62610;SDS011;48683;48.084;17.272;2023-05-29T03:12:28;7.38;;;5.28;;
62610;SDS011;48683;48.084;17.272;2023-05-29T03:14:54;7.53;;;5.50;;
62610;SDS011;48683;48.084;17.272;2023-05-29T03:17:21;6.38;;;4.72;;
62610;SDS011;48683;48.084;17.272;2023-05-29T03:19:46;9.77;;;4.88;;
62610;SDS011;48683;48.084;17.272;2023-05-29T03:22:12;9.47;;;5.53;;
62610;SDS011;48683;48.084;17.272;2023-05-29T03:24:37;9.95;;;5.45;;
62610;SDS011;48683;48.084;17.272;2023-05-29T03:27:03;9.67;;;5.70;;
62610;SDS011;48683;48.084;17.272;2023-05-29T03:29:29;9.00;;;5.40;;
62610;SDS011;48683;48.084;17.272;2023-05-29T03:31:55;7.40;;;5.78;;
62610;SDS011;48683;48.084;17.272;2023-05-29T03:34:21;7.95;;;5.07;;
62610;SDS011;48683;48.084;17.272;2023-05-29T03:36:46;9.75;;;5.90;;
62610;SDS011;48683;48.084;17.272;2023-05-29T03:39:11;6.78;;;5.13;;
62610;SDS011;48683;48.084;17.272;2023-05-29T03:41:37;7.55;;;5.68;;
62610;SDS011;48683;48.084;17.272;2023-05-29T03:44:02;9.48;;;5.50;;
62610;SDS011;48683;48.084;17.272;2023-05-29T03:46:28;9.85;;;5.03;;
62610;SDS011;48683;48.084;17.272;2023-05-29T03:48:53;7.47;;;4.95;;
62610;SDS011;48683;48.084;17.272;2023-05-29T03:51:18;10.38;;;5.85;;
62610;SDS011;48683;48.084;17.272;2023-05-29T03:53:44;7.72;;;5.47;;
62610;SDS011;48683;48.084;17.272;2023-05-29T03:56:09;9.67;;;6.13;;
62610;SDS011;48683;48.084;17.272;2023-05-29T03:58:34;11.73;;;6.18;;
62610;SDS011;48683;48.084;17.272;2023-05-29T04:01:01;12.13;;;6.55;;
62610;SDS011;48683;48.084;17.272;2023-05-29T04:03:27;9.00;;;5.82;;
62610;SDS011;48683;48.084;17.272;2023-05-29T04:05:54;11.18;;;5.90;;
62610;SDS011;48683;48.084;17.272;2023-05-29T04:08:20;9.30;;;5.45;;
62610;SDS011;48683;48.084;17.272;2023-05-29T04:10:46;11.43;;;6.05;;
62610;SDS011;48683;48.084;17.272;2023-05-29T04:13:11;11.97;;;6.23;;
62610;SDS011;48683;48.084;17.272;2023-05-29T04:15:37;13.48;;;6.20;;
62610;SDS011;48683;48.084;17.272;2023-05-29T04:18:03;11.40;;;6.50;;
62610;SDS011;48683;48.084;17.272;2023-05-29T04:20:28;13.07;;;5.63;;
62610;SDS011;48683;48.084;17.272;2023-05-29T04:22:53;9.68;;;6.05;;
62610;SDS011;48683;48.084;17.272;2023-05-29T04:25:19;11.57;;;6.28;;
62610;SDS011;48683;48.084;17.272;2023-05-29T04:27:44;11.27;;;6.15;;
62610;SDS011;48683;48.084;17.272;2023-05-29T04:30:13;9.85;;;6.10;;
62610;SDS011;48683;48.084;17.272;2023-05-29T04:32:40;8.48;;;5.78;;
62610;SDS011;48683;48.084;17.272;2023-05-29T04:35:06;8.43;;;5.80;;
62610;SDS011;48683;48.084;17.272;2023-05-29T04:37:31;12.23;;;6.40;;
62610;SDS011;48683;48.084;17.272;2023-05-29T04:40:02;7.82;;;5.47;;
62610;SDS011;48683;48.084;17.272;2023-05-29T04:42:32;8.55;;;5.85;;
62610;SDS011;48683;48.084;17.272;2023-05-29T04:44:58;9.57;;;5.60;;
62610;SDS011;48683;48.084;17.272;2023-05-29T04:47:25;11.73;;;6.43;;
62610;SDS011;48683;48.084;17.272;2023-05-29T04:49:51;9.63;;;5.95;;
62610;SDS011;48683;48.084;17.272;2023-05-29T04:52:16;8.40;;;6.10;;
62610;SDS011;48683;48.084;17.272;2023-05-29T04:54:42;9.32;;;5.82;;
62610;SDS011;48683;48.084;17.272;2023-05-29T04:57:07;9.38;;;6.20;;
62610;SDS011;48683;48.084;17.272;2023-05-29T04:59:33;8.27;;;6.47;;
62610;SDS011;48683;48.084;17.272;2023-05-29T05:01:59;12.73;;;6.47;;
62610;SDS011;48683;48.084;17.272;2023-05-29T05:04:24;10.23;;;7.13;;
62610;SDS011;48683;48.084;17.272;2023-05-29T05:06:49;8.57;;;5.47;;
62610;SDS011;48683;48.084;17.272;2023-05-29T05:09:15;7.20;;;5.68;;
62610;SDS011;48683;48.084;17.272;2023-05-29T05:11:40;14.53;;;7.70;;
62610;SDS011;48683;48.084;17.272;2023-05-29T05:14:05;11.43;;;7.23;;
62610;SDS011;48683;48.084;17.272;2023-05-29T05:16:30;10.65;;;7.07;;
62610;SDS011;48683;48.084;17.272;2023-05-29T05:18:58;9.70;;;6.25;;
62610;SDS011;48683;48.084;17.272;2023-05-29T05:21:23;9.10;;;6.40;;
62610;SDS011;48683;48.084;17.272;2023-05-29T05:23:48;9.60;;;5.63;;
62610;SDS011;48683;48.084;17.272;2023-05-29T05:26:14;7.50;;;6.23;;
62610;SDS011;48683;48.084;17.272;2023-05-29T05:28:39;17.03;;;7.00;;
62610;SDS011;48683;48.084;17.272;2023-05-29T05:31:04;10.57;;;6.13;;
62610;SDS011;48683;48.084;17.272;2023-05-29T05:33:30;11.17;;;6.30;;
62610;SDS011;48683;48.084;17.272;2023-05-29T05:35:55;8.60;;;6.00;;
62610;SDS011;48683;48.084;17.272;2023-05-29T05:38:20;11.03;;;6.20;;
62610;SDS011;48683;48.084;17.272;2023-05-29T05:40:46;8.97;;;6.53;;
62610;SDS011;48683;48.084;17.272;2023-05-29T05:43:12;11.80;;;6.27;;
62610;SDS011;48683;48.084;17.272;2023-05-29T05:45:37;9.37;;;5.70;;
62610;SDS011;48683;48.084;17.272;2023-05-29T05:48:07;11.68;;;6.43;;
62610;SDS011;48683;48.084;17.272;2023-05-29T05:50:32;14.03;;;6.80;;
62610;SDS011;48683;48.084;17.272;2023-05-29T05:52:58;13.20;;;6.10;;
62610;SDS011;48683;48.084;17.272;2023-05-29T05:55:23;8.37;;;5.60;;
62610;SDS011;48683;48.084;17.272;2023-05-29T05:57:48;8.40;;;5.87;;
62610;SDS011;48683;48.084;17.272;2023-05-29T06:00:14;10.57;;;5.93;;
62610;SDS011;48683;48.084;17.272;2023-05-29T06:02:40;8.40;;;5.80;;
62610;SDS011;48683;48.084;17.272;2023-05-29T06:05:07;8.95;;;5.70;;
62610;SDS011;48683;48.084;17.272;2023-05-29T06:07:34;14.07;;;6.00;;
62610;SDS011;48683;48.084;17.272;2023-05-29T06:10:00;10.02;;;5.68;;
62610;SDS011;48683;48.084;17.272;2023-05-29T06:12:26;12.07;;;6.17;;
62610;SDS011;48683;48.084;17.272;2023-05-29T06:14:51;8.40;;;6.20;;
62610;SDS011;48683;48.084;17.272;2023-05-29T06:17:16;7.93;;;5.87;;
62610;SDS011;48683;48.084;17.272;2023-05-29T06:19:42;13.23;;;5.80;;
62610;SDS011;48683;48.084;17.272;2023-05-29T06:22:07;8.67;;;5.53;;
62610;SDS011;48683;48.084;17.272;2023-05-29T06:24:33;6.97;;;5.00;;
62610;SDS011;48683;48.084;17.272;2023-05-29T06:26:58;11.87;;;5.87;;
62610;SDS011;48683;48.084;17.272;2023-05-29T06:29:23;8.37;;;5.20;;
62610;SDS011;48683;48.084;17.272;2023-05-29T06:31:49;7.50;;;5.70;;
62610;SDS011;48683;48.084;17.272;2023-05-29T06:34:14;9.23;;;5.73;;
62610;SDS011;48683;48.084;17.272;2023-05-29T06:36:39;7.00;;;5.03;;
62610;SDS011;48683;48.084;17.272;2023-05-29T06:41:31;11.10;;;5.60;;
62610;SDS011;48683;48.084;17.272;2023-05-29T06:43:57;7.20;;;5.50;;
62610;SDS011;48683;48.084;17.272;2023-05-29T06:46:22;8.40;;;5.47;;
62610;SDS011;48683;48.084;17.272;2023-05-29T06:48:47;10.07;;;5.30;;
62610;SDS011;48683;48.084;17.272;2023-05-29T06:51:13;11.97;;;5.20;;
62610;SDS011;48683;48.084;17.272;2023-05-29T06:53:38;8.77;;;4.47;;
62610;SDS011;48683;48.084;17.272;2023-05-29T06:56:04;11.40;;;5.43;;
62610;SDS011;48683;48.084;17.272;2023-05-29T06:58:30;10.68;;;5.47;;
62610;SDS011;48683;48.084;17.272;2023-05-29T07:00:56;9.88;;;4.90;;
62610;SDS011;48683;48.084;17.272;2023-05-29T07:03:22;10.30;;;5.40;;
62610;SDS011;48683;48.084;17.272;2023-05-29T07:05:47;16.03;;;5.40;;
62610;SDS011;48683;48.084;17.272;2023-05-29T07:08:13;12.50;;;5.33;;
62610;SDS011;48683;48.084;17.272;2023-05-29T07:10:38;12.13;;;5.30;;
62610;SDS011;48683;48.084;17.272;2023-05-29T07:13:03;7.87;;;5.00;;
62610;SDS011;48683;48.084;17.272;2023-05-29T07:15:31;8.85;;;5.47;;
62610;SDS011;48683;48.084;17.272;2023-05-29T07:17:56;10.47;;;5.93;;
62610;SDS011;48683;48.084;17.272;2023-05-29T07:20:22;10.60;;;6.27;;
62610;SDS011;48683;48.084;17.272;2023-05-29T07:22:47;15.13;;;5.40;;
62610;SDS011;48683;48.084;17.272;2023-05-29T07:25:12;7.67;;;5.33;;
62610;SDS011;48683;48.084;17.272;2023-05-29T07:27:38;11.63;;;6.00;;
62610;SDS011;48683;48.084;17.272;2023-05-29T07:30:03;10.73;;;5.53;;
62610;SDS011;48683;48.084;17.272;2023-05-29T07:32:30;16.02;;;5.40;;
62610;SDS011;48683;48.084;17.272;2023-05-29T07:34:56;9.10;;;4.90;;
62610;SDS011;48683;48.084;17.272;2023-05-29T07:37:21;11.40;;;4.80;;
62610;SDS011;48683;48.084;17.272;2023-05-29T07:39:46;8.77;;;5.23;;
62610;SDS011;48683;48.084;17.272;2023-05-29T07:42:12;9.23;;;5.60;;
62610;SDS011;48683;48.084;17.272;2023-05-29T07:44:37;13.80;;;5.57;;
62610;SDS011;48683;48.084;17.272;2023-05-29T07:47:03;9.83;;;5.27;;
62610;SDS011;48683;48.084;17.272;2023-05-29T07:49:28;9.97;;;5.23;;
62610;SDS011;48683;48.084;17.272;2023-05-29T07:51:53;16.33;;;5.43;;
62610;SDS011;48683;48.084;17.272;2023-05-29T07:54:19;8.03;;;5.60;;
62610;SDS011;48683;48.084;17.272;2023-05-29T07:56:46;8.75;;;5.47;;
62610;SDS011;48683;48.084;17.272;2023-05-29T07:59:11;14.85;;;5.47;;
62610;SDS011;48683;48.084;17.272;2023-05-29T08:01:37;9.30;;;5.50;;
62610;SDS011;48683;48.084;17.272;2023-05-29T08:04:04;13.90;;;6.07;;
62610;SDS011;48683;48.084;17.272;2023-05-29T08:06:29;13.23;;;5.53;;
62610;SDS011;48683;48.084;17.272;2023-05-29T08:08:57;11.25;;;5.95;;
62610;SDS011;48683;48.084;17.272;2023-05-29T08:11:22;9.93;;;5.73;;
62610;SDS011;48683;48.084;17.272;2023-05-29T08:13:48;8.07;;;5.93;;
62610;SDS011;48683;48.084;17.272;2023-05-29T08:16:13;7.37;;;4.77;;
62610;SDS011;48683;48.084;17.272;2023-05-29T08:18:40;11.02;;;5.35;;
62610;SDS011;48683;48.084;17.272;2023-05-29T08:21:06;10.13;;;5.07;;
62610;SDS011;48683;48.084;17.272;2023-05-29T08:23:32;13.48;;;5.40;;
62610;SDS011;48683;48.084;17.272;2023-05-29T08:25:57;10.53;;;5.17;;
62610;SDS011;48683;48.084;17.272;2023-05-29T08:28:23;8.63;;;4.80;;
62610;SDS011;48683;48.084;17.272;2023-05-29T08:30:48;11.87;;;4.60;;
62610;SDS011;48683;48.084;17.272;2023-05-29T08:33:14;12.07;;;5.13;;
62610;SDS011;48683;48.084;17.272;2023-05-29T08:35:39;11.47;;;5.27;;
62610;SDS011;48683;48.084;17.272;2023-05-29T08:38:05;7.80;;;4.93;;
62610;SDS011;48683;48.084;17.272;2023-05-29T08:40:31;15.80;;;5.30;;
62610;SDS011;48683;48.084;17.272;2023-05-29T08:42:57;10.33;;;5.43;;
62610;SDS011;48683;48.084;17.272;2023-05-29T08:45:26;9.13;;;5.13;;
62610;SDS011;48683;48.084;17.272;2023-05-29T08:47:54;10.20;;;5.28;;
62610;SDS011;48683;48.084;17.272;2023-05-29T08:50:22;10.35;;;4.75;;
62610;SDS011;48683;48.084;17.272;2023-05-29T08:52:48;10.00;;;4.80;;
62610;SDS011;48683;48.084;17.272;2023-05-29T08:57:40;10.97;;;5.20;;
62610;SDS011;48683;48.084;17.272;2023-05-29T09:00:08;8.93;;;5.13;;
62610;SDS011;48683;48.084;17.272;2023-05-29T09:02:37;8.90;;;5.20;;
62610;SDS011;48683;48.084;17.272;2023-05-29T09:05:09;9.23;;;5.53;;
62610;SDS011;48683;48.084;17.272;2023-05-29T09:07:38;9.17;;;4.90;;
62610;SDS011;48683;48.084;17.272;2023-05-29T09:10:08;13.32;;;5.47;;
62610;SDS011;48683;48.084;17.272;2023-05-29T09:12:34;13.40;;;4.95;;
62610;SDS011;48683;48.084;17.272;2023-05-29T09:15:00;17.17;;;5.57;;
62610;SDS011;48683;48.084;17.272;2023-05-29T09:17:30;12.43;;;5.22;;
62610;SDS011;48683;48.084;17.272;2023-05-29T09:19:57;10.75;;;5.45;;
62610;SDS011;48683;48.084;17.272;2023-05-29T09:22:23;8.43;;;5.10;;
62610;SDS011;48683;48.084;17.272;2023-05-29T09:24:48;12.03;;;5.57;;
62610;SDS011;48683;48.084;17.272;2023-05-29T09:27:14;10.65;;;5.43;;
62610;SDS011;48683;48.084;17.272;2023-05-29T09:29:40;15.93;;;5.60;;
62610;SDS011;48683;48.084;17.272;2023-05-29T09:32:12;7.90;;;4.82;;
62610;SDS011;48683;48.084;17.272;2023-05-29T09:34:39;8.50;;;5.43;;
62610;SDS011;48683;48.084;17.272;2023-05-29T09:37:06;7.17;;;5.17;;
62610;SDS011;48683;48.084;17.272;2023-05-29T09:42:12;8.18;;;4.95;;
62610;SDS011;48683;48.084;17.272;2023-05-29T09:44:41;9.38;;;5.55;;
62610;SDS011;48683;48.084;17.272;2023-05-29T09:47:08;7.45;;;4.95;;
62610;SDS011;48683;48.084;17.272;2023-05-29T09:49:34;9.70;;;5.45;;
62610;SDS011;48683;48.084;17.272;2023-05-29T09:52:03;7.47;;;5.10;;
62610;SDS011;48683;48.084;17.272;2023-05-29T09:54:28;14.17;;;5.30;;
62610;SDS011;48683;48.084;17.272;2023-05-29T09:56:54;5.72;;;5.00;;
62610;SDS011;48683;48.084;17.272;2023-05-29T10:01:48;10.73;;;5.38;;
62610;SDS011;48683;48.084;17.272;2023-05-29T10:04:14;9.85;;;5.18;;
62610;SDS011;48683;48.084;17.272;2023-05-29T10:06:45;7.37;;;5.13;;
62610;SDS011;48683;48.084;17.272;2023-05-29T10:09:14;10.07;;;5.68;;
62610;SDS011;48683;48.084;17.272;2023-05-29T10:11:43;10.52;;;5.50;;
62610;SDS011;48683;48.084;17.272;2023-05-29T10:14:09;7.97;;;5.20;;
62610;SDS011;48683;48.084;17.272;2023-05-29T10:16:40;11.45;;;5.13;;
62610;SDS011;48683;48.084;17.272;2023-05-29T10:19:10;6.38;;;4.95;;
62610;SDS011;48683;48.084;17.272;2023-05-29T10:21:37;10.38;;;5.97;;
62610;SDS011;48683;48.084;17.272;2023-05-29T10:24:05;7.63;;;5.60;;
62610;SDS011;48683;48.084;17.272;2023-05-29T10:26:33;8.93;;;5.40;;
62610;SDS011;48683;48.084;17.272;2023-05-29T10:35:27;9.52;;;5.70;;
62610;SDS011;48683;48.084;17.272;2023-05-29T10:38:11;10.85;;;5.13;;
62610;SDS011;48683;48.084;17.272;2023-05-29T10:40:38;8.15;;;5.55;;
62610;SDS011;48683;48.084;17.272;2023-05-29T10:43:03;6.83;;;4.30;;
62610;SDS011;48683;48.084;17.272;2023-05-29T10:50:38;6.95;;;5.03;;
62610;SDS011;48683;48.084;17.272;2023-05-29T10:53:07;9.00;;;4.88;;
62610;SDS011;48683;48.084;17.272;2023-05-29T10:55:39;6.93;;;4.93;;
62610;SDS011;48683;48.084;17.272;2023-05-29T10:58:06;8.55;;;5.32;;
62610;SDS011;48683;48.084;17.272;2023-05-29T11:00:33;9.43;;;5.13;;
62610;SDS011;48683;48.084;17.272;2023-05-29T11:03:02;9.27;;;5.32;;
62610;SDS011;48683;48.084;17.272;2023-05-29T11:05:28;8.50;;;5.57;;
62610;SDS011;48683;48.084;17.272;2023-05-29T11:07:57;8.10;;;5.20;;
62610;SDS011;48683;48.084;17.272;2023-05-29T11:13:26;8.70;;;5.55;;
62610;SDS011;48683;48.084;17.272;2023-05-29T11:16:04;12.90;;;6.03;;
62610;SDS011;48683;48.084;17.272;2023-05-29T11:18:39;10.43;;;5.82;;
62610;SDS011;48683;48.084;17.272;2023-05-29T11:21:07;11.10;;;6.00;;
62610;SDS011;48683;48.084;17.272;2023-05-29T11:23:46;8.25;;;5.68;;
62610;SDS011;48683;48.084;17.272;2023-05-29T11:26:12;11.80;;;5.93;;
62610;SDS011;48683;48.084;17.272;2023-05-29T11:28:38;7.97;;;5.05;;
62610;SDS011;48683;48.084;17.272;2023-05-29T11:31:07;8.60;;;5.33;;
62610;SDS011;48683;48.084;17.272;2023-05-29T11:33:33;9.20;;;6.05;;
62610;SDS011;48683;48.084;17.272;2023-05-29T11:36:04;7.47;;;5.90;;
62610;SDS011;48683;48.084;17.272;2023-05-29T11:38:31;9.52;;;5.70;;
62610;SDS011;48683;48.084;17.272;2023-05-29T11:40:57;9.73;;;5.50;;
62610;SDS011;48683;48.084;17.272;2023-05-29T11:43:25;10.60;;;5.60;;
62610;SDS011;48683;48.084;17.272;2023-05-29T11:45:50;9.32;;;5.65;;
62610;SDS011;48683;48.084;17.272;2023-05-29T11:48:16;9.77;;;5.33;;
62610;SDS011;48683;48.084;17.272;2023-05-29T11:50:41;10.27;;;5.20;;
62610;SDS011;48683;48.084;17.272;2023-05-29T11:53:08;8.70;;;5.72;;
62610;SDS011;48683;48.084;17.272;2023-05-29T11:55:34;12.90;;;6.53;;
62610;SDS011;48683;48.084;17.272;2023-05-29T11:58:02;9.15;;;5.82;;
62610;SDS011;48683;48.084;17.272;2023-05-29T12:02:59;9.13;;;5.82;;
62610;SDS011;48683;48.084;17.272;2023-05-29T12:05:29;10.63;;;5.70;;
62610;SDS011;48683;48.084;17.272;2023-05-29T12:07:56;7.50;;;5.50;;
62610;SDS011;48683;48.084;17.272;2023-05-29T12:10:22;11.05;;;5.85;;
62610;SDS011;48683;48.084;17.272;2023-05-29T12:13:07;7.63;;;5.30;;
62610;SDS011;48683;48.084;17.272;2023-05-29T12:15:32;8.45;;;5.35;;
62610;SDS011;48683;48.084;17.272;2023-05-29T12:17:57;8.50;;;5.30;;
62610;SDS011;48683;48.084;17.272;2023-05-29T12:20:23;8.60;;;5.40;;
62610;SDS011;48683;48.084;17.272;2023-05-29T12:22:51;7.88;;;5.20;;
62610;SDS011;48683;48.084;17.272;2023-05-29T12:25:18;7.70;;;5.05;;
62610;SDS011;48683;48.084;17.272;2023-05-29T12:27:45;7.57;;;5.55;;
62610;SDS011;48683;48.084;17.272;2023-05-29T12:32:44;8.77;;;5.55;;
62610;SDS011;48683;48.084;17.272;2023-05-29T12:35:15;8.45;;;5.30;;
62610;SDS011;48683;48.084;17.272;2023-05-29T12:37:46;10.15;;;5.45;;
62610;SDS011;48683;48.084;17.272;2023-05-29T12:42:48;7.97;;;5.40;;
62610;SDS011;48683;48.084;17.272;2023-05-29T12:48:12;5.97;;;5.03;;
62610;SDS011;48683;48.084;17.272;2023-05-29T12:50:33;10.15;;;5.30;;
62610;SDS011;48683;48.084;17.272;2023-05-29T12:53:10;9.07;;;5.22;;
62610;SDS011;48683;48.084;17.272;2023-05-29T12:55:39;9.55;;;4.95;;
62610;SDS011;48683;48.084;17.272;2023-05-29T12:58:10;7.35;;;5.35;;
62610;SDS011;48683;48.084;17.272;2023-05-29T13:00:37;7.50;;;6.00;;
62610;SDS011;48683;48.084;17.272;2023-05-29T13:03:06;9.52;;;8.27;;
62610;SDS011;48683;48.084;17.272;2023-05-29T13:07:58;12.80;;;8.77;;
62610;SDS011;48683;48.084;17.272;2023-05-29T13:10:24;10.75;;;5.97;;
62610;SDS011;48683;48.084;17.272;2023-05-29T13:15:19;8.48;;;5.25;;
62610;SDS011;48683;48.084;17.272;2023-05-29T13:17:44;13.15;;;5.47;;
62610;SDS011;48683;48.084;17.272;2023-05-29T13:20:10;7.97;;;4.83;;
62610;SDS011;48683;48.084;17.272;2023-05-29T13:22:37;8.85;;;5.18;;
62610;SDS011;48683;48.084;17.272;2023-05-29T13:27:31;7.85;;;5.07;;
62610;SDS011;48683;48.084;17.272;2023-05-29T13:29:58;14.85;;;10.02;;
62610;SDS011;48683;48.084;17.272;2023-05-29T13:32:23;16.17;;;8.57;;
62610;SDS011;48683;48.084;17.272;2023-05-29T13:34:49;9.83;;;6.30;;
62610;SDS011;48683;48.084;17.272;2023-05-29T13:37:14;8.13;;;5.30;;
62610;SDS011;48683;48.084;17.272;2023-05-29T13:39:39;9.83;;;5.20;;
62610;SDS011;48683;48.084;17.272;2023-05-29T13:42:05;9.80;;;5.40;;
62610;SDS011;48683;48.084;17.272;2023-05-29T13:44:32;8.20;;;5.63;;
62610;SDS011;48683;48.084;17.272;2023-05-29T13:46:57;10.33;;;5.53;;
62610;SDS011;48683;48.084;17.272;2023-05-29T13:49:23;6.73;;;4.90;;
62610;SDS011;48683;48.084;17.272;2023-05-29T13:51:48;8.50;;;5.37;;
62610;SDS011;48683;48.084;17.272;2023-05-29T13:54:15;7.90;;;5.33;;
62610;SDS011;48683;48.084;17.272;2023-05-29T13:56:42;6.22;;;5.53;;
62610;SDS011;48683;48.084;17.272;2023-05-29T13:59:08;8.40;;;5.97;;
62610;SDS011;48683;48.084;17.272;2023-05-29T14:01:33;8.93;;;5.23;;
62610;SDS011;48683;48.084;17.272;2023-05-29T14:03:58;8.07;;;5.43;;
62610;SDS011;48683;48.084;17.272;2023-05-29T14:06:24;5.47;;;4.55;;
62610;SDS011;48683;48.084;17.272;2023-05-29T14:08:50;11.35;;;4.75;;
62610;SDS011;48683;48.084;17.272;2023-05-29T14:11:16;7.60;;;4.40;;
62610;SDS011;48683;48.084;17.272;2023-05-29T14:13:41;9.83;;;5.00;;
62610;SDS011;48683;48.084;17.272;2023-05-29T14:16:06;7.67;;;5.27;;
62610;SDS011;48683;48.084;17.272;2023-05-29T14:18:32;7.77;;;5.57;;
62610;SDS011;48683;48.084;17.272;2023-05-29T14:20:57;7.93;;;5.10;;
62610;SDS011;48683;48.084;17.272;2023-05-29T14:23:22;7.23;;;4.90;;
62610;SDS011;48683;48.084;17.272;2023-05-29T14:25:48;7.57;;;5.10;;
62610;SDS011;48683;48.084;17.272;2023-05-29T14:28:13;8.37;;;5.57;;
62610;SDS011;48683;48.084;17.272;2023-05-29T14:30:38;7.33;;;5.00;;
62610;SDS011;48683;48.084;17.272;2023-05-29T14:33:04;12.60;;;6.00;;
62610;SDS011;48683;48.084;17.272;2023-05-29T14:35:29;66.40;;;42.67;;
62610;SDS011;48683;48.084;17.272;2023-05-29T14:37:56;171.10;;;96.07;;
62610;SDS011;48683;48.084;17.272;2023-05-29T14:42:47;149.17;;;97.50;;
62610;SDS011;48683;48.084;17.272;2023-05-29T14:45:12;27.97;;;20.37;;
62610;SDS011;48683;48.084;17.272;2023-05-29T14:47:39;12.50;;;8.95;;
62610;SDS011;48683;48.084;17.272;2023-05-29T14:50:05;7.90;;;5.88;;
62610;SDS011;48683;48.084;17.272;2023-05-29T14:52:31;8.88;;;5.45;;
62610;SDS011;48683;48.084;17.272;2023-05-29T14:54:56;7.27;;;5.10;;
62610;SDS011;48683;48.084;17.272;2023-05-29T14:57:21;8.27;;;5.30;;
62610;SDS011;48683;48.084;17.272;2023-05-29T14:59:46;11.97;;;10.77;;
62610;SDS011;48683;48.084;17.272;2023-05-29T15:02:12;22.33;;;18.87;;
62610;SDS011;48683;48.084;17.272;2023-05-29T15:04:37;12.73;;;7.87;;
62610;SDS011;48683;48.084;17.272;2023-05-29T15:07:03;9.73;;;6.77;;
62610;SDS011;48683;48.084;17.272;2023-05-29T15:09:29;7.88;;;5.60;;
62610;SDS011;48683;48.084;17.272;2023-05-29T15:11:54;6.70;;;4.60;;
62610;SDS011;48683;48.084;17.272;2023-05-29T15:14:20;8.30;;;4.87;;
62610;SDS011;48683;48.084;17.272;2023-05-29T15:16:45;9.33;;;7.50;;
62610;SDS011;48683;48.084;17.272;2023-05-29T15:19:10;9.97;;;6.93;;